Turecamo Girls — WDC3464 — position and weather

sailwx.info

Track history (hours):
 
Tides and Currents Weather Stations Pressure Air Temp Water Temp Dewpoint Dewpoint Depression Visibility Wind Speed Wind Dir Waves Ship Positions

Turecamo Girls

Owner: Moran Towing Corporation, New Canaan, CT. More information available from US FCC via Universal Licensing System and Coast Guard Vessel Documentation Center.

Last reported at 2018-Feb-24 12:00 UTC. Time now 2018-Feb-24 12:21 UTC.
Position N 40°38' W 074°08'.

Length 30 m; draft 15 m.

Type: Tug. MMSI: 366946710.

Date/timePositionNaut miles runAvg speedWind from/ knotsBaromVisibWave heightAir tempDewpointWater temp
2018-Feb-24 12:00N 40°38' W 074°08'0 0.0
2018-Feb-24 11:30N 40°38' W 074°08'0 0.0
2018-Feb-24 11:00N 40°38' W 074°08'0 0.0
2018-Feb-24 10:30N 40°38' W 074°08'0 0.0
2018-Feb-24 10:00N 40°38' W 074°08'0 0.0
2018-Feb-24 09:29N 40°38' W 074°08'0 0.0
2018-Feb-24 09:00N 40°38' W 074°08'0 0.0
2018-Feb-24 08:30N 40°38' W 074°08'0 0.0
2018-Feb-24 08:00N 40°38' W 074°08'0 0.0
2018-Feb-24 07:30N 40°38' W 074°08'0 0.0
2018-Feb-24 07:00N 40°38' W 074°08'0 0.0
2018-Feb-24 06:28N 40°38' W 074°08'0 0.0
2018-Feb-24 06:00N 40°38' W 074°08'0 0.0
2018-Feb-24 05:30N 40°38' W 074°08'0 0.0
2018-Feb-24 05:00N 40°38' W 074°08'0 0.0
2018-Feb-24 04:30N 40°38' W 074°08'0 0.0
2018-Feb-24 04:00N 40°38' W 074°08'0 0.0
2018-Feb-24 03:30N 40°38' W 074°08'0 0.0
2018-Feb-24 03:00N 40°38' W 074°08'0 0.0
2018-Feb-24 02:29N 40°38' W 074°08'0 0.0
2018-Feb-24 02:00N 40°38' W 074°08'0 0.0
2018-Feb-24 01:30N 40°38' W 074°08'0 0.0
2018-Feb-24 01:00N 40°38' W 074°08'0 0.0
2018-Feb-24 00:30N 40°38' W 074°08'0 0.0
2018-Feb-24 00:00N 40°38' W 074°08'0 0.0
2018-Feb-23 23:29N 40°38' W 074°08'0 0.0
2018-Feb-23 23:00N 40°38' W 074°08'0 0.0
2018-Feb-23 22:00N 40°38' W 074°08'0 0.4
2018-Feb-23 21:29N 40°39' W 074°08'4 8.2
2018-Feb-23 21:00N 40°40' W 074°03'510.2
2018-Feb-23 20:29N 40°45' W 074°01'5 9.6
2018-Feb-23 20:00N 40°50' W 073°58'0 0.8
2018-Feb-23 19:29N 40°50' W 073°58'1 1.3
2018-Feb-23 19:00N 40°49' W 073°58'2 3.7
2018-Feb-23 18:30N 40°48' W 073°59'5 9.7
2018-Feb-23 18:00N 40°43' W 074°01'4 8.7
2018-Feb-23 17:30N 40°39' W 074°04'3 5.1
2018-Feb-23 16:57N 40°38' W 074°08'0 0.0
2018-Feb-23 16:24N 40°38' W 074°08'2 4.2
2018-Feb-23 16:00N 40°39' W 074°10'4 2.2
2018-Feb-23 14:15N 40°35' W 074°12'3 1.8
2018-Feb-23 12:21N 40°33' W 074°15'410.0
2018-Feb-23 11:59N 40°36' W 074°12'4 7.9
2018-Feb-23 11:30N 40°39' W 074°09'1 1.6
2018-Feb-23 10:58N 40°38' W 074°08'0 0.0
2018-Feb-23 10:28N 40°38' W 074°08'0 0.0
2018-Feb-23 09:58N 40°38' W 074°08'0 0.0
2018-Feb-23 09:28N 40°38' W 074°08'0 0.0
2018-Feb-23 08:58N 40°38' W 074°08'0 0.0
2018-Feb-23 08:28N 40°38' W 074°08'0 0.0
2018-Feb-23 07:58N 40°38' W 074°08'0 0.0
2018-Feb-23 07:28N 40°38' W 074°08'0 0.0
2018-Feb-23 06:57N 40°38' W 074°08'0 0.0
2018-Feb-23 06:21N 40°38' W 074°08'0 0.0
2018-Feb-23 06:00N 40°38' W 074°08'0 0.0
2018-Feb-23 05:30N 40°38' W 074°08'0 0.0
2018-Feb-23 05:00N 40°38' W 074°08'0 0.0
2018-Feb-23 04:30N 40°38' W 074°08'0 0.0
2018-Feb-23 04:00N 40°38' W 074°08'0 0.0
2018-Feb-23 03:30N 40°38' W 074°08'0 0.0
2018-Feb-23 03:00N 40°38' W 074°08'0 0.0
2018-Feb-23 02:27N 40°38' W 074°08'0 0.0
2018-Feb-23 01:57N 40°38' W 074°08'0 0.0
2018-Feb-23 01:30N 40°38' W 074°08'1 2.5
2018-Feb-23 01:00N 40°39' W 074°06'2 3.1
2018-Feb-23 00:28N 40°40' W 074°05'0 0.4
2018-Feb-22 23:55N 40°40' W 074°05'2 4.0
2018-Feb-22 23:27N 40°39' W 074°03'0 1.0
2018-Feb-22 23:00N 40°39' W 074°03'1 2.9
2018-Feb-22 22:30N 40°40' W 074°04'0 0.0
2018-Feb-22 22:00N 40°40' W 074°04'0 0.0
2018-Feb-22 21:30N 40°40' W 074°04'0 0.0
2018-Feb-22 21:00N 40°40' W 074°04'0 0.0
2018-Feb-22 20:30N 40°40' W 074°04'0 0.0
2018-Feb-22 20:00N 40°40' W 074°04'0 0.0
2018-Feb-22 19:30N 40°40' W 074°04'4 7.6
2018-Feb-22 19:01N 40°42' W 074°00'4 8.1
2018-Feb-22 18:30N 40°45' W 073°57'0 0.4
2018-Feb-22 17:59N 40°46' W 073°57'0 0.0
2018-Feb-22 17:26N 40°46' W 073°57'0 0.0
2018-Feb-22 16:56N 40°46' W 073°57'0 0.0
2018-Feb-22 16:29N 40°46' W 073°57'0 0.0
2018-Feb-22 15:50N 40°46' W 073°57'1 2.9
2018-Feb-22 15:30N 40°45' W 073°58'510.4
2018-Feb-22 15:01N 40°41' W 074°02'4 7.7
2018-Feb-22 14:30N 40°39' W 074°06'1 1.9
2018-Feb-22 13:55N 40°38' W 074°08'0 0.0
2018-Feb-22 13:25N 40°38' W 074°08'0 0.0
2018-Feb-22 12:55N 40°38' W 074°08'0 0.0
2018-Feb-22 12:25N 40°38' W 074°08'0 0.0
2018-Feb-22 11:55N 40°38' W 074°08'0 0.0
2018-Feb-22 11:28N 40°38' W 074°08'0 0.0
2018-Feb-22 10:58N 40°38' W 074°08'0 0.0
2018-Feb-22 10:28N 40°38' W 074°08'0 0.0
2018-Feb-22 09:58N 40°38' W 074°08'0 0.0
2018-Feb-22 09:28N 40°38' W 074°08'0 0.0
2018-Feb-22 08:58N 40°38' W 074°08'0 0.0
2018-Feb-22 08:28N 40°38' W 074°08'0 0.0
2018-Feb-22 07:58N 40°38' W 074°08'0 0.0
2018-Feb-22 07:19N 40°38' W 074°08'0 0.0
2018-Feb-22 06:58N 40°38' W 074°08'0 0.0
2018-Feb-22 06:28N 40°38' W 074°08'0 0.0
2018-Feb-22 05:58N 40°38' W 074°08'0 0.0
2018-Feb-22 05:28N 40°38' W 074°08'0 0.0
2018-Feb-22 04:58N 40°38' W 074°08'0 0.0
2018-Feb-22 04:28N 40°38' W 074°08'0 0.0
2018-Feb-22 03:58N 40°38' W 074°08'0 0.0
2018-Feb-22 03:28N 40°38' W 074°08'0 0.0
2018-Feb-22 02:49N 40°38' W 074°08'0 0.0
2018-Feb-22 02:25N 40°38' W 074°08'0 0.0
2018-Feb-22 01:58N 40°38' W 074°08'2 4.8
2018-Feb-22 01:30N 40°41' W 074°08'1 1.5
2018-Feb-22 00:55N 40°41' W 074°08'0 0.2
2018-Feb-22 00:30N 40°42' W 074°08'0 0.8
2018-Feb-22 00:00N 40°41' W 074°08'2 3.2
2018-Feb-21 23:29N 40°43' W 074°07'0 0.0
2018-Feb-21 22:59N 40°43' W 074°07'0 1.0
2018-Feb-21 22:30N 40°42' W 074°07'2 3.8
2018-Feb-21 21:59N 40°40' W 074°08'2 3.8
2018-Feb-21 21:30N 40°39' W 074°08'0 0.9
2018-Feb-21 21:00N 40°38' W 074°08'0 0.0
2018-Feb-21 20:30N 40°38' W 074°08'0 0.0
2018-Feb-21 20:00N 40°38' W 074°08'0 0.0
2018-Feb-21 19:30N 40°38' W 074°08'0 0.0
2018-Feb-21 19:00N 40°38' W 074°08'2 4.6
2018-Feb-21 18:30N 40°39' W 074°11'5 2.7
2018-Feb-21 16:37N 40°34' W 074°13'1 4.8
2018-Feb-21 16:30N 40°34' W 074°13'2 3.8
2018-Feb-21 15:59N 40°36' W 074°12'2 4.6
2018-Feb-21 15:30N 40°39' W 074°11'3 5.5
2018-Feb-21 14:59N 40°39' W 074°08'3 6.5
2018-Feb-21 14:30N 40°39' W 074°04'0 0.9
2018-Feb-21 13:58N 40°39' W 074°03'4 7.7
2018-Feb-21 13:30N 40°39' W 074°08'0 0.3
2018-Feb-21 12:59N 40°38' W 074°08'0 0.0
2018-Feb-21 12:23N 40°38' W 074°08'0 0.0
2018-Feb-21 11:59N 40°38' W 074°08'0 0.0
2018-Feb-21 11:29N 40°38' W 074°08'0 0.0
2018-Feb-21 10:58N 40°38' W 074°08'0 0.0
2018-Feb-21 10:25N 40°38' W 074°08'0 0.0
2018-Feb-21 09:58N 40°38' W 074°08'0 0.0
2018-Feb-21 09:25N 40°38' W 074°08'0 0.0
2018-Feb-21 08:55N 40°38' W 074°08'0 0.0
2018-Feb-21 08:25N 40°38' W 074°08'0 0.0
2018-Feb-21 07:58N 40°38' W 074°08'0 0.0
2018-Feb-21 07:28N 40°38' W 074°08'0 0.0
2018-Feb-21 06:58N 40°38' W 074°08'0 0.0
2018-Feb-21 06:28N 40°38' W 074°08'0 0.0
2018-Feb-21 05:58N 40°38' W 074°08'0 0.0
2018-Feb-21 05:28N 40°38' W 074°08'0 0.0
2018-Feb-21 04:58N 40°38' W 074°08'0 0.0
2018-Feb-21 04:28N 40°38' W 074°08'0 0.0
2018-Feb-21 03:58N 40°38' W 074°08'0 0.0
2018-Feb-21 03:28N 40°38' W 074°08'0 0.0
2018-Feb-21 02:55N 40°38' W 074°08'0 0.0
2018-Feb-21 02:28N 40°38' W 074°08'0 0.3
2018-Feb-21 02:00N 40°39' W 074°08'0 0.3
2018-Feb-21 01:30N 40°38' W 074°08'0 0.0
2018-Feb-21 01:00N 40°38' W 074°08'0 0.0
2018-Feb-21 00:27N 40°38' W 074°08'0 0.0
2018-Feb-21 00:00N 40°38' W 074°08'2 4.5
2018-Feb-20 23:30N 40°41' W 074°08'2 3.9
2018-Feb-20 22:57N 40°43' W 074°07'0 1.1
2018-Feb-20 22:31N 40°42' W 074°07'2 4.3
2018-Feb-20 21:56N 40°40' W 074°08'1 3.2
2018-Feb-20 21:30N 40°39' W 074°08'0 0.5
2018-Feb-20 20:56N 40°38' W 074°08'0 0.0
2018-Feb-20 20:29N 40°38' W 074°08'0 0.0
2018-Feb-20 19:56N 40°38' W 074°08'0 0.0
2018-Feb-20 19:29N 40°38' W 074°08'0 0.0
2018-Feb-20 18:59N 40°38' W 074°08'0 0.0
2018-Feb-20 18:26N 40°38' W 074°08'1 2.9
2018-Feb-20 18:00N 40°40' W 074°09'3 6.4
2018-Feb-20 17:29N 40°43' W 074°07'0 0.1
2018-Feb-20 16:58N 40°43' W 074°07'1 1.5
2018-Feb-20 16:30N 40°42' W 074°07'4 6.8
2018-Feb-20 15:59N 40°39' W 074°08'1 1.1
2018-Feb-20 15:29N 40°38' W 074°08'0 0.0
2018-Feb-20 14:53N 40°38' W 074°08'0 0.0
2018-Feb-20 14:17N 40°38' W 074°08'2 7.6
2018-Feb-20 14:00N 40°39' W 074°05'3 6.5
2018-Feb-20 13:30N 40°41' W 074°01'1 1.5
2018-Feb-20 12:59N 40°41' W 074°01'2 3.5
2018-Feb-20 12:31N 40°40' W 074°03'2 3.6
2018-Feb-20 11:58N 40°38' W 074°03'1 2.3
2018-Feb-20 11:30N 40°40' W 074°03'4 0.3
2018-Feb-20 00:49N 40°38' W 074°08'1 4.1
2018-Feb-20 00:28N 40°40' W 074°09'0 0.2
2018-Feb-19 23:58N 40°40' W 074°09'1 2.4
2018-Feb-19 23:29N 40°39' W 074°09'3 5.9
2018-Feb-19 23:00N 40°39' W 074°05'2 3.0
2018-Feb-19 22:27N 40°38' W 074°03'1 1.0
2018-Feb-19 21:40N 40°38' W 074°04'1 8.2
2018-Feb-19 21:30N 40°39' W 074°05'2 2.4
2018-Feb-19 20:53N 40°39' W 074°07'2 5.1
2018-Feb-19 20:30N 40°41' W 074°08'1 1.9
2018-Feb-19 19:58N 40°41' W 074°09'1 2.7
2018-Feb-19 19:30N 40°40' W 074°08'2 3.5
2018-Feb-19 18:59N 40°39' W 074°07'3 6.1
2018-Feb-19 18:30N 40°38' W 074°03'3 5.2
2018-Feb-19 18:00N 40°39' W 074°06'1 2.5
2018-Feb-19 17:27N 40°38' W 074°08'0 0.0
2018-Feb-19 16:57N 40°38' W 074°08'0 0.0
2018-Feb-19 16:21N 40°38' W 074°08'0 0.0
2018-Feb-19 15:57N 40°38' W 074°08'0 0.0
2018-Feb-19 15:24N 40°38' W 074°08'0 0.0
2018-Feb-19 14:57N 40°38' W 074°08'0 0.0
2018-Feb-19 12:45N 40°38' W 074°08'0 0.0
2018-Feb-19 12:27N 40°38' W 074°08'0 0.9
2018-Feb-19 11:58N 40°39' W 074°08'3 5.9
2018-Feb-19 11:30N 40°38' W 074°12'5 7.8
2018-Feb-19 10:53N 40°33' W 074°13'2 0.5
2018-Feb-19 07:59N 40°33' W 074°15'4 8.8
2018-Feb-19 07:30N 40°36' W 074°12'4 7.2
2018-Feb-19 06:57N 40°39' W 074°08'0 0.3
2018-Feb-19 06:30N 40°38' W 074°08'0 0.0
2018-Feb-19 06:00N 40°38' W 074°08'0 0.0
2018-Feb-19 05:30N 40°38' W 074°08'0 0.0
2018-Feb-19 05:00N 40°38' W 074°08'0 0.0
2018-Feb-19 04:06N 40°38' W 074°08'0 0.0
2018-Feb-19 04:00N 40°38' W 074°08'0 0.0
2018-Feb-19 03:27N 40°38' W 074°08'2 5.6
2018-Feb-19 03:01N 40°41' W 074°08'1 1.0
2018-Feb-19 02:30N 40°41' W 074°08'2 4.6
2018-Feb-19 02:00N 40°39' W 074°09'1 2.0
2018-Feb-19 01:28N 40°38' W 074°08'0 0.0
2018-Feb-19 00:55N 40°38' W 074°08'0 0.0
2018-Feb-19 00:25N 40°38' W 074°08'2 4.2
2018-Feb-19 00:00N 40°40' W 074°08'1 2.3
2018-Feb-18 23:26N 40°41' W 074°08'0 0.2
2018-Feb-18 22:57N 40°42' W 074°08'0 0.0
2018-Feb-18 22:30N 40°42' W 074°08'2 3.4
2018-Feb-18 21:57N 40°40' W 074°09'1 1.1
2018-Feb-18 21:29N 40°39' W 074°09'2 3.1
2018-Feb-18 20:57N 40°39' W 074°07'1 1.2
2018-Feb-18 20:30N 40°39' W 074°06'0 0.1
2018-Feb-18 20:00N 40°39' W 074°06'1 2.6
2018-Feb-18 19:30N 40°39' W 074°08'0 0.4
2018-Feb-18 19:00N 40°38' W 074°08'0 0.0
2018-Feb-18 18:12N 40°38' W 074°08'0 0.0
2018-Feb-18 18:00N 40°38' W 074°08'0 0.0
2018-Feb-18 17:18N 40°38' W 074°08'1 4.3
2018-Feb-18 17:00N 40°39' W 074°06'4 8.1
2018-Feb-18 16:30N 40°36' W 074°02'6 9.4
2018-Feb-18 15:51N 40°31' W 073°58'410.4
2018-Feb-18 15:29N 40°34' W 074°02'4 8.5
2018-Feb-18 14:59N 40°38' W 074°04'0 0.5
2018-Feb-18 14:28N 40°38' W 074°04'0 0.5
2018-Feb-18 13:58N 40°38' W 074°04'0 0.0
2018-Feb-18 13:28N 40°38' W 074°04'0 0.0
2018-Feb-18 12:58N 40°38' W 074°04'1 1.1
2018-Feb-18 12:29N 40°38' W 074°03'0 0.1
2018-Feb-18 11:58N 40°38' W 074°04'0 0.1
2018-Feb-18 11:28N 40°37' W 074°04'0 0.1
2018-Feb-18 10:58N 40°37' W 074°04'0 0.1
2018-Feb-18 10:28N 40°37' W 074°04'1 2.9
2018-Feb-18 10:01N 40°36' W 074°03'4 8.3
2018-Feb-18 09:30N 40°32' W 074°02'4 6.1
2018-Feb-18 08:51N 40°29' W 074°06'8 5.9
2018-Feb-18 07:33N 40°33' W 074°15'1 6.2
2018-Feb-18 07:20N 40°33' W 074°13'2 5.3
2018-Feb-18 07:00N 40°35' W 074°12'3 5.6
2018-Feb-18 06:30N 40°38' W 074°12'0 0.2
2018-Feb-18 05:59N 40°38' W 074°12'1 2.9
2018-Feb-18 05:30N 40°39' W 074°11'2 3.6
2018-Feb-18 04:51N 40°38' W 074°08'0 0.0
2018-Feb-18 04:24N 40°38' W 074°08'0 0.0
2018-Feb-18 04:00N 40°38' W 074°08'0 0.0
2018-Feb-18 03:30N 40°38' W 074°08'0 0.0
2018-Feb-18 03:00N 40°38' W 074°08'0 0.0
2018-Feb-18 02:24N 40°38' W 074°08'0 0.0
2018-Feb-18 01:59N 40°38' W 074°08'0 0.0
2018-Feb-18 01:26N 40°38' W 074°08'0 0.0
2018-Feb-17 23:35N 40°38' W 074°08'0 0.0
2018-Feb-17 23:26N 40°38' W 074°08'0 0.0
2018-Feb-17 22:56N 40°38' W 074°08'0 0.0
2018-Feb-17 22:11N 40°38' W 074°08'0 0.0
2018-Feb-17 21:35N 40°38' W 074°08'0 0.0
2018-Feb-17 21:29N 40°38' W 074°08'0 0.0
2018-Feb-17 20:59N 40°38' W 074°08'0 0.0
2018-Feb-17 20:14N 40°38' W 074°08'0 0.0
2018-Feb-17 19:59N 40°38' W 074°08'0 0.0
2018-Feb-17 19:26N 40°38' W 074°08'0 0.0
2018-Feb-17 18:59N 40°38' W 074°08'0 0.0
2018-Feb-17 18:17N 40°38' W 074°08'0 0.0
2018-Feb-17 15:53N 40°38' W 074°08'1 2.7
2018-Feb-17 15:30N 40°39' W 074°07'1 0.7
2018-Feb-17 14:30N 40°39' W 074°06'2 4.6
2018-Feb-17 14:00N 40°38' W 074°03'0 0.7
2018-Feb-17 13:30N 40°38' W 074°03'1 1.7
2018-Feb-17 12:58N 40°39' W 074°03'0 0.4
2018-Feb-17 12:28N 40°39' W 074°03'3 5.8
2018-Feb-17 12:00N 40°39' W 074°06'4 9.0
2018-Feb-17 11:30N 40°38' W 074°12'6 3.2
2018-Feb-17 09:43N 40°33' W 074°15'2 6.9
2018-Feb-17 09:24N 40°34' W 074°13'3 8.3
2018-Feb-17 09:00N 40°37' W 074°12'4 7.1
2018-Feb-17 08:30N 40°38' W 074°08'0 0.0
2018-Feb-17 07:39N 40°38' W 074°08'0 0.0
2018-Feb-17 07:09N 40°38' W 074°08'0 0.0
2018-Feb-17 07:00N 40°38' W 074°08'0 0.0
2018-Feb-17 06:30N 40°38' W 074°08'2 3.6
2018-Feb-17 06:00N 40°40' W 074°08'2 3.1
2018-Feb-17 05:29N 40°42' W 074°08'0 0.2
2018-Feb-17 05:00N 40°42' W 074°08'3 6.4
2018-Feb-17 04:30N 40°39' W 074°08'1 1.1
2018-Feb-17 04:00N 40°38' W 074°08'0 0.0
2018-Feb-17 03:30N 40°38' W 074°08'0 0.0
2018-Feb-17 02:54N 40°38' W 074°08'0 0.0
2018-Feb-17 02:30N 40°38' W 074°08'0 0.0
2018-Feb-17 01:48N 40°38' W 074°08'0 0.0
2018-Feb-17 01:30N 40°38' W 074°08'0 0.0
2018-Feb-17 01:00N 40°38' W 074°08'2 4.0
2018-Feb-17 00:30N 40°40' W 074°08'2 3.0
2018-Feb-16 23:59N 40°42' W 074°09'1 1.7
2018-Feb-16 23:28N 40°41' W 074°08'2 4.1
2018-Feb-16 22:59N 40°39' W 074°09'1 2.1
2018-Feb-16 22:28N 40°38' W 074°08'0 0.1
2018-Feb-16 21:58N 40°38' W 074°08'0 0.0
2018-Feb-16 21:22N 40°38' W 074°08'0 0.0
2018-Feb-16 20:49N 40°38' W 074°08'0 0.0
2018-Feb-16 20:25N 40°38' W 074°08'0 0.0
2018-Feb-16 19:58N 40°38' W 074°08'0 0.0
2018-Feb-16 19:25N 40°38' W 074°08'0 0.0
2018-Feb-16 18:58N 40°38' W 074°08'0 0.0
2018-Feb-16 18:25N 40°38' W 074°08'0 0.0
2018-Feb-16 18:01N 40°38' W 074°08'0 0.0
2018-Feb-16 17:25N 40°38' W 074°08'2 4.2
2018-Feb-16 17:01N 40°39' W 074°06'2 2.8
2018-Feb-16 16:24N 40°38' W 074°08'0 0.0
2018-Feb-16 16:00N 40°38' W 074°08'0 0.0
2018-Feb-16 15:30N 40°38' W 074°08'0 0.0
2018-Feb-16 15:00N 40°38' W 074°08'0 0.0
2018-Feb-16 14:30N 40°38' W 074°08'0 0.0
2018-Feb-16 14:00N 40°38' W 074°08'0 0.1
2018-Feb-16 13:27N 40°39' W 074°08'2 2.3
2018-Feb-16 12:41N 40°39' W 074°06'0 1.3
2018-Feb-16 12:30N 40°39' W 074°05'1 1.7
2018-Feb-16 12:00N 40°39' W 074°06'1 2.0
2018-Feb-16 11:24N 40°38' W 074°08'0 0.0
2018-Feb-16 11:00N 40°38' W 074°08'0 0.0
2018-Feb-16 09:48N 40°38' W 074°08'0 0.0
2018-Feb-16 09:30N 40°38' W 074°08'0 0.0
2018-Feb-16 09:00N 40°38' W 074°08'0 0.0
2018-Feb-16 08:30N 40°38' W 074°08'0 0.0
2018-Feb-16 08:00N 40°38' W 074°08'0 0.0
2018-Feb-16 07:30N 40°38' W 074°08'0 0.0
2018-Feb-16 06:54N 40°38' W 074°08'0 0.0
2018-Feb-16 06:30N 40°38' W 074°08'0 0.0
2018-Feb-16 06:00N 40°38' W 074°08'0 0.0
2018-Feb-16 05:30N 40°38' W 074°08'0 0.0
2018-Feb-16 04:54N 40°38' W 074°08'0 0.0
2018-Feb-16 04:24N 40°38' W 074°08'0 0.0
2018-Feb-16 04:00N 40°38' W 074°08'0 0.0
2018-Feb-16 03:30N 40°38' W 074°08'0 0.0
2018-Feb-16 03:00N 40°38' W 074°08'0 0.0
2018-Feb-16 02:30N 40°38' W 074°08'0 0.0
2018-Feb-16 01:48N 40°38' W 074°08'2 5.5
2018-Feb-16 01:30N 40°39' W 074°10'7 2.0
2018-Feb-15 21:53N 40°33' W 074°15'3 7.6
2018-Feb-15 21:30N 40°35' W 074°13'4 8.5
2018-Feb-15 21:00N 40°39' W 074°10'2 3.7
2018-Feb-15 20:27N 40°38' W 074°08'0 0.0
2018-Feb-15 19:57N 40°38' W 074°08'0 0.0
2018-Feb-15 19:21N 40°38' W 074°08'0 0.0
2018-Feb-15 18:57N 40°38' W 074°08'0 0.0
2018-Feb-15 18:27N 40°38' W 074°08'0 0.0
2018-Feb-15 18:00N 40°38' W 074°08'0 0.0
2018-Feb-15 17:27N 40°38' W 074°08'0 0.0
2018-Feb-15 16:54N 40°38' W 074°08'0 0.0
2018-Feb-15 16:30N 40°38' W 074°08'0 0.0
2018-Feb-15 16:00N 40°38' W 074°08'0 0.1
2018-Feb-15 15:30N 40°39' W 074°08'3 2.5
2018-Feb-15 14:24N 40°40' W 074°04'1 2.1
2018-Feb-15 14:00N 40°40' W 074°03'3 5.7
2018-Feb-15 13:29N 40°39' W 074°07'1 1.2
2018-Feb-15 12:59N 40°38' W 074°08'0 0.0
2018-Feb-15 12:04N 40°38' W 074°08'0 0.0
2018-Feb-15 11:46N 40°38' W 074°08'0 0.0
2018-Feb-15 11:19N 40°38' W 074°08'0 0.0
2018-Feb-15 10:58N 40°38' W 074°08'0 0.0
2018-Feb-15 10:07N 40°38' W 074°08'0 0.0
2018-Feb-15 09:58N 40°38' W 074°08'0 0.0
2018-Feb-15 09:28N 40°38' W 074°08'0 0.0
2018-Feb-15 08:58N 40°38' W 074°08'0 0.0
2018-Feb-15 08:25N 40°38' W 074°08'0 0.0
2018-Feb-15 07:58N 40°38' W 074°08'0 0.0
2018-Feb-15 07:25N 40°38' W 074°08'0 0.0
2018-Feb-15 06:55N 40°38' W 074°08'0 0.0
2018-Feb-15 06:19N 40°38' W 074°08'0 0.0
2018-Feb-15 05:49N 40°38' W 074°08'0 0.0
2018-Feb-15 05:25N 40°38' W 074°08'0 0.0
2018-Feb-15 04:58N 40°38' W 074°08'0 0.0
2018-Feb-15 04:25N 40°38' W 074°08'0 0.0
2018-Feb-15 03:55N 40°38' W 074°08'0 0.0
2018-Feb-15 03:25N 40°38' W 074°08'0 0.0
2018-Feb-15 02:58N 40°38' W 074°08'0 0.0
2018-Feb-15 02:25N 40°38' W 074°08'0 0.0
2018-Feb-15 01:52N 40°38' W 074°08'0 0.0
2018-Feb-15 01:19N 40°38' W 074°08'0 0.0
2018-Feb-15 00:43N 40°38' W 074°08'1 5.1
2018-Feb-15 00:30N 40°39' W 074°09'2 3.5
2018-Feb-14 23:50N 40°41' W 074°08'0 0.2
2018-Feb-14 23:29N 40°41' W 074°08'0 0.7
2018-Feb-14 23:00N 40°42' W 074°09'0 0.5
2018-Feb-14 22:30N 40°42' W 074°08'2 4.6
2018-Feb-14 22:00N 40°39' W 074°09'2 4.5
2018-Feb-14 21:30N 40°39' W 074°06'2 4.5
2018-Feb-14 21:01N 40°39' W 074°03'3 5.1
2018-Feb-14 20:30N 40°39' W 074°06'1 2.3
2018-Feb-14 19:59N 40°38' W 074°08'2 4.4
2018-Feb-14 19:30N 40°39' W 074°05'0 0.1
2018-Feb-14 18:58N 40°39' W 074°05'0 0.4
2018-Feb-14 18:30N 40°39' W 074°05'1 2.9
2018-Feb-14 18:00N 40°38' W 074°03'1 1.1
2018-Feb-14 17:30N 40°39' W 074°04'3 4.5
2018-Feb-14 16:52N 40°38' W 074°08'0 0.0
2018-Feb-14 16:28N 40°38' W 074°08'0 0.0
2018-Feb-14 15:52N 40°38' W 074°08'0 0.0
2018-Feb-14 15:28N 40°38' W 074°08'1 3.0
2018-Feb-14 15:00N 40°39' W 074°06'3 5.5
2018-Feb-14 14:29N 40°40' W 074°02'4 8.8
2018-Feb-14 14:00N 40°38' W 074°08'0 0.1
2018-Feb-14 13:28N 40°38' W 074°08'0 0.0
2018-Feb-14 12:58N 40°38' W 074°08'0 0.0
2018-Feb-14 12:28N 40°38' W 074°08'  
Track history (hours):
 
Tides and Currents Weather Stations Pressure Air Temp Water Temp Dewpoint Dewpoint Depression Visibility Wind Speed Wind Dir Waves Ship Positions

Turecamo Girls

Owner: Moran Towing Corporation, New Canaan, CT. More information available from US FCC via Universal Licensing System and Coast Guard Vessel Documentation Center.

Last reported at 2018-Feb-24 12:00 UTC. Time now 2018-Feb-24 12:21 UTC.
Position N 40°38' W 074°08'.

Length 30 m; draft 15 m.

Type: Tug. MMSI: 366946710.

Date/timePositionNaut miles runAvg speedWind from/ knotsBaromVisibWave heightAir tempDewpointWater temp
2018-Feb-24 12:00N 40°38' W 074°08'0 0.0
2018-Feb-24 11:30N 40°38' W 074°08'0 0.0
2018-Feb-24 11:00N 40°38' W 074°08'0 0.0
2018-Feb-24 10:30N 40°38' W 074°08'0 0.0
2018-Feb-24 10:00N 40°38' W 074°08'0 0.0
2018-Feb-24 09:29N 40°38' W 074°08'0 0.0
2018-Feb-24 09:00N 40°38' W 074°08'0 0.0
2018-Feb-24 08:30N 40°38' W 074°08'0 0.0
2018-Feb-24 08:00N 40°38' W 074°08'0 0.0
2018-Feb-24 07:30N 40°38' W 074°08'0 0.0
2018-Feb-24 07:00N 40°38' W 074°08'0 0.0
2018-Feb-24 06:28N 40°38' W 074°08'0 0.0
2018-Feb-24 06:00N 40°38' W 074°08'0 0.0
2018-Feb-24 05:30N 40°38' W 074°08'0 0.0
2018-Feb-24 05:00N 40°38' W 074°08'0 0.0
2018-Feb-24 04:30N 40°38' W 074°08'0 0.0
2018-Feb-24 04:00N 40°38' W 074°08'0 0.0
2018-Feb-24 03:30N 40°38' W 074°08'0 0.0
2018-Feb-24 03:00N 40°38' W 074°08'0 0.0
2018-Feb-24 02:29N 40°38' W 074°08'0 0.0
2018-Feb-24 02:00N 40°38' W 074°08'0 0.0
2018-Feb-24 01:30N 40°38' W 074°08'0 0.0
2018-Feb-24 01:00N 40°38' W 074°08'0 0.0
2018-Feb-24 00:30N 40°38' W 074°08'0 0.0
2018-Feb-24 00:00N 40°38' W 074°08'0 0.0
2018-Feb-23 23:29N 40°38' W 074°08'0 0.0
2018-Feb-23 23:00N 40°38' W 074°08'0 0.0
2018-Feb-23 22:00N 40°38' W 074°08'0 0.4
2018-Feb-23 21:29N 40°39' W 074°08'4 8.2
2018-Feb-23 21:00N 40°40' W 074°03'510.2
2018-Feb-23 20:29N 40°45' W 074°01'5 9.6
2018-Feb-23 20:00N 40°50' W 073°58'0 0.8
2018-Feb-23 19:29N 40°50' W 073°58'1 1.3
2018-Feb-23 19:00N 40°49' W 073°58'2 3.7
2018-Feb-23 18:30N 40°48' W 073°59'5 9.7
2018-Feb-23 18:00N 40°43' W 074°01'4 8.7
2018-Feb-23 17:30N 40°39' W 074°04'3 5.1
2018-Feb-23 16:57N 40°38' W 074°08'0 0.0
2018-Feb-23 16:24N 40°38' W 074°08'2 4.2
2018-Feb-23 16:00N 40°39' W 074°10'4 2.2
2018-Feb-23 14:15N 40°35' W 074°12'3 1.8
2018-Feb-23 12:21N 40°33' W 074°15'410.0
2018-Feb-23 11:59N 40°36' W 074°12'4 7.9
2018-Feb-23 11:30N 40°39' W 074°09'1 1.6
2018-Feb-23 10:58N 40°38' W 074°08'0 0.0
2018-Feb-23 10:28N 40°38' W 074°08'0 0.0
2018-Feb-23 09:58N 40°38' W 074°08'0 0.0
2018-Feb-23 09:28N 40°38' W 074°08'0 0.0
2018-Feb-23 08:58N 40°38' W 074°08'0 0.0
2018-Feb-23 08:28N 40°38' W 074°08'0 0.0
2018-Feb-23 07:58N 40°38' W 074°08'0 0.0
2018-Feb-23 07:28N 40°38' W 074°08'0 0.0
2018-Feb-23 06:57N 40°38' W 074°08'0 0.0
2018-Feb-23 06:21N 40°38' W 074°08'0 0.0
2018-Feb-23 06:00N 40°38' W 074°08'0 0.0
2018-Feb-23 05:30N 40°38' W 074°08'0 0.0
2018-Feb-23 05:00N 40°38' W 074°08'0 0.0
2018-Feb-23 04:30N 40°38' W 074°08'0 0.0
2018-Feb-23 04:00N 40°38' W 074°08'0 0.0
2018-Feb-23 03:30N 40°38' W 074°08'0 0.0
2018-Feb-23 03:00N 40°38' W 074°08'0 0.0
2018-Feb-23 02:27N 40°38' W 074°08'0 0.0
2018-Feb-23 01:57N 40°38' W 074°08'0 0.0
2018-Feb-23 01:30N 40°38' W 074°08'1 2.5
2018-Feb-23 01:00N 40°39' W 074°06'2 3.1
2018-Feb-23 00:28N 40°40' W 074°05'0 0.4
2018-Feb-22 23:55N 40°40' W 074°05'2 4.0
2018-Feb-22 23:27N 40°39' W 074°03'0 1.0
2018-Feb-22 23:00N 40°39' W 074°03'1 2.9
2018-Feb-22 22:30N 40°40' W 074°04'0 0.0
2018-Feb-22 22:00N 40°40' W 074°04'0 0.0
2018-Feb-22 21:30N 40°40' W 074°04'0 0.0
2018-Feb-22 21:00N 40°40' W 074°04'0 0.0
2018-Feb-22 20:30N 40°40' W 074°04'0 0.0
2018-Feb-22 20:00N 40°40' W 074°04'0 0.0
2018-Feb-22 19:30N 40°40' W 074°04'4 7.6
2018-Feb-22 19:01N 40°42' W 074°00'4 8.1
2018-Feb-22 18:30N 40°45' W 073°57'0 0.4
2018-Feb-22 17:59N 40°46' W 073°57'0 0.0
2018-Feb-22 17:26N 40°46' W 073°57'0 0.0
2018-Feb-22 16:56N 40°46' W 073°57'0 0.0
2018-Feb-22 16:29N 40°46' W 073°57'0 0.0
2018-Feb-22 15:50N 40°46' W 073°57'1 2.9
2018-Feb-22 15:30N 40°45' W 073°58'510.4
2018-Feb-22 15:01N 40°41' W 074°02'4 7.7
2018-Feb-22 14:30N 40°39' W 074°06'1 1.9
2018-Feb-22 13:55N 40°38' W 074°08'0 0.0
2018-Feb-22 13:25N 40°38' W 074°08'0 0.0
2018-Feb-22 12:55N 40°38' W 074°08'0 0.0
2018-Feb-22 12:25N 40°38' W 074°08'0 0.0
2018-Feb-22 11:55N 40°38' W 074°08'0 0.0
2018-Feb-22 11:28N 40°38' W 074°08'0 0.0
2018-Feb-22 10:58N 40°38' W 074°08'0 0.0
2018-Feb-22 10:28N 40°38' W 074°08'0 0.0
2018-Feb-22 09:58N 40°38' W 074°08'0 0.0
2018-Feb-22 09:28N 40°38' W 074°08'0 0.0
2018-Feb-22 08:58N 40°38' W 074°08'0 0.0
2018-Feb-22 08:28N 40°38' W 074°08'0 0.0
2018-Feb-22 07:58N 40°38' W 074°08'0 0.0
2018-Feb-22 07:19N 40°38' W 074°08'0 0.0
2018-Feb-22 06:58N 40°38' W 074°08'0 0.0
2018-Feb-22 06:28N 40°38' W 074°08'0 0.0
2018-Feb-22 05:58N 40°38' W 074°08'0 0.0
2018-Feb-22 05:28N 40°38' W 074°08'0 0.0
2018-Feb-22 04:58N 40°38' W 074°08'0 0.0
2018-Feb-22 04:28N 40°38' W 074°08'0 0.0
2018-Feb-22 03:58N 40°38' W 074°08'0 0.0
2018-Feb-22 03:28N 40°38' W 074°08'0 0.0
2018-Feb-22 02:49N 40°38' W 074°08'0 0.0
2018-Feb-22 02:25N 40°38' W 074°08'0 0.0
2018-Feb-22 01:58N 40°38' W 074°08'2 4.8
2018-Feb-22 01:30N 40°41' W 074°08'1 1.5
2018-Feb-22 00:55N 40°41' W 074°08'0 0.2
2018-Feb-22 00:30N 40°42' W 074°08'0 0.8
2018-Feb-22 00:00N 40°41' W 074°08'2 3.2
2018-Feb-21 23:29N 40°43' W 074°07'0 0.0
2018-Feb-21 22:59N 40°43' W 074°07'0 1.0
2018-Feb-21 22:30N 40°42' W 074°07'2 3.8
2018-Feb-21 21:59N 40°40' W 074°08'2 3.8
2018-Feb-21 21:30N 40°39' W 074°08'0 0.9
2018-Feb-21 21:00N 40°38' W 074°08'0 0.0
2018-Feb-21 20:30N 40°38' W 074°08'0 0.0
2018-Feb-21 20:00N 40°38' W 074°08'0 0.0
2018-Feb-21 19:30N 40°38' W 074°08'0 0.0
2018-Feb-21 19:00N 40°38' W 074°08'2 4.6
2018-Feb-21 18:30N 40°39' W 074°11'5 2.7
2018-Feb-21 16:37N 40°34' W 074°13'1 4.8
2018-Feb-21 16:30N 40°34' W 074°13'2 3.8
2018-Feb-21 15:59N 40°36' W 074°12'2 4.6
2018-Feb-21 15:30N 40°39' W 074°11'3 5.5
2018-Feb-21 14:59N 40°39' W 074°08'3 6.5
2018-Feb-21 14:30N 40°39' W 074°04'0 0.9
2018-Feb-21 13:58N 40°39' W 074°03'4 7.7
2018-Feb-21 13:30N 40°39' W 074°08'0 0.3
2018-Feb-21 12:59N 40°38' W 074°08'0 0.0
2018-Feb-21 12:23N 40°38' W 074°08'0 0.0
2018-Feb-21 11:59N 40°38' W 074°08'0 0.0
2018-Feb-21 11:29N 40°38' W 074°08'0 0.0
2018-Feb-21 10:58N 40°38' W 074°08'0 0.0
2018-Feb-21 10:25N 40°38' W 074°08'0 0.0
2018-Feb-21 09:58N 40°38' W 074°08'0 0.0
2018-Feb-21 09:25N 40°38' W 074°08'0 0.0
2018-Feb-21 08:55N 40°38' W 074°08'0 0.0
2018-Feb-21 08:25N 40°38' W 074°08'0 0.0
2018-Feb-21 07:58N 40°38' W 074°08'0 0.0
2018-Feb-21 07:28N 40°38' W 074°08'0 0.0
2018-Feb-21 06:58N 40°38' W 074°08'0 0.0
2018-Feb-21 06:28N 40°38' W 074°08'0 0.0
2018-Feb-21 05:58N 40°38' W 074°08'0 0.0
2018-Feb-21 05:28N 40°38' W 074°08'0 0.0
2018-Feb-21 04:58N 40°38' W 074°08'0 0.0
2018-Feb-21 04:28N 40°38' W 074°08'0 0.0
2018-Feb-21 03:58N 40°38' W 074°08'0 0.0
2018-Feb-21 03:28N 40°38' W 074°08'0 0.0
2018-Feb-21 02:55N 40°38' W 074°08'0 0.0
2018-Feb-21 02:28N 40°38' W 074°08'0 0.3
2018-Feb-21 02:00N 40°39' W 074°08'0 0.3
2018-Feb-21 01:30N 40°38' W 074°08'0 0.0
2018-Feb-21 01:00N 40°38' W 074°08'0 0.0
2018-Feb-21 00:27N 40°38' W 074°08'0 0.0
2018-Feb-21 00:00N 40°38' W 074°08'2 4.5
2018-Feb-20 23:30N 40°41' W 074°08'2 3.9
2018-Feb-20 22:57N 40°43' W 074°07'0 1.1
2018-Feb-20 22:31N 40°42' W 074°07'2 4.3
2018-Feb-20 21:56N 40°40' W 074°08'1 3.2
2018-Feb-20 21:30N 40°39' W 074°08'0 0.5
2018-Feb-20 20:56N 40°38' W 074°08'0 0.0
2018-Feb-20 20:29N 40°38' W 074°08'0 0.0
2018-Feb-20 19:56N 40°38' W 074°08'0 0.0
2018-Feb-20 19:29N 40°38' W 074°08'0 0.0
2018-Feb-20 18:59N 40°38' W 074°08'0 0.0
2018-Feb-20 18:26N 40°38' W 074°08'1 2.9
2018-Feb-20 18:00N 40°40' W 074°09'3 6.4
2018-Feb-20 17:29N 40°43' W 074°07'0 0.1
2018-Feb-20 16:58N 40°43' W 074°07'1 1.5
2018-Feb-20 16:30N 40°42' W 074°07'4 6.8
2018-Feb-20 15:59N 40°39' W 074°08'1 1.1
2018-Feb-20 15:29N 40°38' W 074°08'0 0.0
2018-Feb-20 14:53N 40°38' W 074°08'0 0.0
2018-Feb-20 14:17N 40°38' W 074°08'2 7.6
2018-Feb-20 14:00N 40°39' W 074°05'3 6.5
2018-Feb-20 13:30N 40°41' W 074°01'1 1.5
2018-Feb-20 12:59N 40°41' W 074°01'2 3.5
2018-Feb-20 12:31N 40°40' W 074°03'2 3.6
2018-Feb-20 11:58N 40°38' W 074°03'1 2.3
2018-Feb-20 11:30N 40°40' W 074°03'4 0.3
2018-Feb-20 00:49N 40°38' W 074°08'1 4.1
2018-Feb-20 00:28N 40°40' W 074°09'0 0.2
2018-Feb-19 23:58N 40°40' W 074°09'1 2.4
2018-Feb-19 23:29N 40°39' W 074°09'3 5.9
2018-Feb-19 23:00N 40°39' W 074°05'2 3.0
2018-Feb-19 22:27N 40°38' W 074°03'1 1.0
2018-Feb-19 21:40N 40°38' W 074°04'1 8.2
2018-Feb-19 21:30N 40°39' W 074°05'2 2.4
2018-Feb-19 20:53N 40°39' W 074°07'2 5.1
2018-Feb-19 20:30N 40°41' W 074°08'1 1.9
2018-Feb-19 19:58N 40°41' W 074°09'1 2.7
2018-Feb-19 19:30N 40°40' W 074°08'2 3.5
2018-Feb-19 18:59N 40°39' W 074°07'3 6.1
2018-Feb-19 18:30N 40°38' W 074°03'3 5.2
2018-Feb-19 18:00N 40°39' W 074°06'1 2.5
2018-Feb-19 17:27N 40°38' W 074°08'0 0.0
2018-Feb-19 16:57N 40°38' W 074°08'0 0.0
2018-Feb-19 16:21N 40°38' W 074°08'0 0.0
2018-Feb-19 15:57N 40°38' W 074°08'0 0.0
2018-Feb-19 15:24N 40°38' W 074°08'0 0.0
2018-Feb-19 14:57N 40°38' W 074°08'0 0.0
2018-Feb-19 12:45N 40°38' W 074°08'0 0.0
2018-Feb-19 12:27N 40°38' W 074°08'0 0.9
2018-Feb-19 11:58N 40°39' W 074°08'3 5.9
2018-Feb-19 11:30N 40°38' W 074°12'5 7.8
2018-Feb-19 10:53N 40°33' W 074°13'2 0.5
2018-Feb-19 07:59N 40°33' W 074°15'4 8.8
2018-Feb-19 07:30N 40°36' W 074°12'4 7.2
2018-Feb-19 06:57N 40°39' W 074°08'0 0.3
2018-Feb-19 06:30N 40°38' W 074°08'0 0.0
2018-Feb-19 06:00N 40°38' W 074°08'0 0.0
2018-Feb-19 05:30N 40°38' W 074°08'0 0.0
2018-Feb-19 05:00N 40°38' W 074°08'0 0.0
2018-Feb-19 04:06N 40°38' W 074°08'0 0.0
2018-Feb-19 04:00N 40°38' W 074°08'0 0.0
2018-Feb-19 03:27N 40°38' W 074°08'2 5.6
2018-Feb-19 03:01N 40°41' W 074°08'1 1.0
2018-Feb-19 02:30N 40°41' W 074°08'2 4.6
2018-Feb-19 02:00N 40°39' W 074°09'1 2.0
2018-Feb-19 01:28N 40°38' W 074°08'0 0.0
2018-Feb-19 00:55N 40°38' W 074°08'0 0.0
2018-Feb-19 00:25N 40°38' W 074°08'2 4.2
2018-Feb-19 00:00N 40°40' W 074°08'1 2.3
2018-Feb-18 23:26N 40°41' W 074°08'0 0.2
2018-Feb-18 22:57N 40°42' W 074°08'0 0.0
2018-Feb-18 22:30N 40°42' W 074°08'2 3.4
2018-Feb-18 21:57N 40°40' W 074°09'1 1.1
2018-Feb-18 21:29N 40°39' W 074°09'2 3.1
2018-Feb-18 20:57N 40°39' W 074°07'1 1.2
2018-Feb-18 20:30N 40°39' W 074°06'0 0.1
2018-Feb-18 20:00N 40°39' W 074°06'1 2.6
2018-Feb-18 19:30N 40°39' W 074°08'0 0.4
2018-Feb-18 19:00N 40°38' W 074°08'0 0.0
2018-Feb-18 18:12N 40°38' W 074°08'0 0.0
2018-Feb-18 18:00N 40°38' W 074°08'0 0.0
2018-Feb-18 17:18N 40°38' W 074°08'1 4.3
2018-Feb-18 17:00N 40°39' W 074°06'4 8.1
2018-Feb-18 16:30N 40°36' W 074°02'6 9.4
2018-Feb-18 15:51N 40°31' W 073°58'410.4
2018-Feb-18 15:29N 40°34' W 074°02'4 8.5
2018-Feb-18 14:59N 40°38' W 074°04'0 0.5
2018-Feb-18 14:28N 40°38' W 074°04'0 0.5
2018-Feb-18 13:58N 40°38' W 074°04'0 0.0
2018-Feb-18 13:28N 40°38' W 074°04'0 0.0
2018-Feb-18 12:58N 40°38' W 074°04'1 1.1
2018-Feb-18 12:29N 40°38' W 074°03'0 0.1
2018-Feb-18 11:58N 40°38' W 074°04'0 0.1
2018-Feb-18 11:28N 40°37' W 074°04'0 0.1
2018-Feb-18 10:58N 40°37' W 074°04'0 0.1
2018-Feb-18 10:28N 40°37' W 074°04'1 2.9
2018-Feb-18 10:01N 40°36' W 074°03'4 8.3
2018-Feb-18 09:30N 40°32' W 074°02'4 6.1
2018-Feb-18 08:51N 40°29' W 074°06'8 5.9
2018-Feb-18 07:33N 40°33' W 074°15'1 6.2
2018-Feb-18 07:20N 40°33' W 074°13'2 5.3
2018-Feb-18 07:00N 40°35' W 074°12'3 5.6
2018-Feb-18 06:30N 40°38' W 074°12'0 0.2
2018-Feb-18 05:59N 40°38' W 074°12'1 2.9
2018-Feb-18 05:30N 40°39' W 074°11'2 3.6
2018-Feb-18 04:51N 40°38' W 074°08'0 0.0
2018-Feb-18 04:24N 40°38' W 074°08'0 0.0
2018-Feb-18 04:00N 40°38' W 074°08'0 0.0
2018-Feb-18 03:30N 40°38' W 074°08'0 0.0
2018-Feb-18 03:00N 40°38' W 074°08'0 0.0
2018-Feb-18 02:24N 40°38' W 074°08'0 0.0
2018-Feb-18 01:59N 40°38' W 074°08'0 0.0
2018-Feb-18 01:26N 40°38' W 074°08'0 0.0
2018-Feb-17 23:35N 40°38' W 074°08'0 0.0
2018-Feb-17 23:26N 40°38' W 074°08'0 0.0
2018-Feb-17 22:56N 40°38' W 074°08'0 0.0
2018-Feb-17 22:11N 40°38' W 074°08'0 0.0
2018-Feb-17 21:35N 40°38' W 074°08'0 0.0
2018-Feb-17 21:29N 40°38' W 074°08'0 0.0
2018-Feb-17 20:59N 40°38' W 074°08'0 0.0
2018-Feb-17 20:14N 40°38' W 074°08'0 0.0
2018-Feb-17 19:59N 40°38' W 074°08'0 0.0
2018-Feb-17 19:26N 40°38' W 074°08'0 0.0
2018-Feb-17 18:59N 40°38' W 074°08'0 0.0
2018-Feb-17 18:17N 40°38' W 074°08'0 0.0
2018-Feb-17 15:53N 40°38' W 074°08'1 2.7
2018-Feb-17 15:30N 40°39' W 074°07'1 0.7
2018-Feb-17 14:30N 40°39' W 074°06'2 4.6
2018-Feb-17 14:00N 40°38' W 074°03'0 0.7
2018-Feb-17 13:30N 40°38' W 074°03'1 1.7
2018-Feb-17 12:58N 40°39' W 074°03'0 0.4
2018-Feb-17 12:28N 40°39' W 074°03'3 5.8
2018-Feb-17 12:00N 40°39' W 074°06'4 9.0
2018-Feb-17 11:30N 40°38' W 074°12'6 3.2
2018-Feb-17 09:43N 40°33' W 074°15'2 6.9
2018-Feb-17 09:24N 40°34' W 074°13'3 8.3
2018-Feb-17 09:00N 40°37' W 074°12'4 7.1
2018-Feb-17 08:30N 40°38' W 074°08'0 0.0
2018-Feb-17 07:39N 40°38' W 074°08'0 0.0
2018-Feb-17 07:09N 40°38' W 074°08'0 0.0
2018-Feb-17 07:00N 40°38' W 074°08'0 0.0
2018-Feb-17 06:30N 40°38' W 074°08'2 3.6
2018-Feb-17 06:00N 40°40' W 074°08'2 3.1
2018-Feb-17 05:29N 40°42' W 074°08'0 0.2
2018-Feb-17 05:00N 40°42' W 074°08'3 6.4
2018-Feb-17 04:30N 40°39' W 074°08'1 1.1
2018-Feb-17 04:00N 40°38' W 074°08'0 0.0
2018-Feb-17 03:30N 40°38' W 074°08'0 0.0
2018-Feb-17 02:54N 40°38' W 074°08'0 0.0
2018-Feb-17 02:30N 40°38' W 074°08'0 0.0
2018-Feb-17 01:48N 40°38' W 074°08'0 0.0
2018-Feb-17 01:30N 40°38' W 074°08'0 0.0
2018-Feb-17 01:00N 40°38' W 074°08'2 4.0
2018-Feb-17 00:30N 40°40' W 074°08'2 3.0
2018-Feb-16 23:59N 40°42' W 074°09'1 1.7
2018-Feb-16 23:28N 40°41' W 074°08'2 4.1
2018-Feb-16 22:59N 40°39' W 074°09'1 2.1
2018-Feb-16 22:28N 40°38' W 074°08'0 0.1
2018-Feb-16 21:58N 40°38' W 074°08'0 0.0
2018-Feb-16 21:22N 40°38' W 074°08'0 0.0
2018-Feb-16 20:49N 40°38' W 074°08'0 0.0
2018-Feb-16 20:25N 40°38' W 074°08'0 0.0
2018-Feb-16 19:58N 40°38' W 074°08'0 0.0
2018-Feb-16 19:25N 40°38' W 074°08'0 0.0
2018-Feb-16 18:58N 40°38' W 074°08'0 0.0
2018-Feb-16 18:25N 40°38' W 074°08'0 0.0
2018-Feb-16 18:01N 40°38' W 074°08'0 0.0
2018-Feb-16 17:25N 40°38' W 074°08'2 4.2
2018-Feb-16 17:01N 40°39' W 074°06'2 2.8
2018-Feb-16 16:24N 40°38' W 074°08'0 0.0
2018-Feb-16 16:00N 40°38' W 074°08'0 0.0
2018-Feb-16 15:30N 40°38' W 074°08'0 0.0
2018-Feb-16 15:00N 40°38' W 074°08'0 0.0
2018-Feb-16 14:30N 40°38' W 074°08'0 0.0
2018-Feb-16 14:00N 40°38' W 074°08'0 0.1
2018-Feb-16 13:27N 40°39' W 074°08'2 2.3
2018-Feb-16 12:41N 40°39' W 074°06'0 1.3
2018-Feb-16 12:30N 40°39' W 074°05'1 1.7
2018-Feb-16 12:00N 40°39' W 074°06'1 2.0
2018-Feb-16 11:24N 40°38' W 074°08'0 0.0
2018-Feb-16 11:00N 40°38' W 074°08'0 0.0
2018-Feb-16 09:48N 40°38' W 074°08'0 0.0
2018-Feb-16 09:30N 40°38' W 074°08'0 0.0
2018-Feb-16 09:00N 40°38' W 074°08'0 0.0
2018-Feb-16 08:30N 40°38' W 074°08'0 0.0
2018-Feb-16 08:00N 40°38' W 074°08'0 0.0
2018-Feb-16 07:30N 40°38' W 074°08'0 0.0
2018-Feb-16 06:54N 40°38' W 074°08'0 0.0
2018-Feb-16 06:30N 40°38' W 074°08'0 0.0
2018-Feb-16 06:00N 40°38' W 074°08'0 0.0
2018-Feb-16 05:30N 40°38' W 074°08'0 0.0
2018-Feb-16 04:54N 40°38' W 074°08'0 0.0
2018-Feb-16 04:24N 40°38' W 074°08'0 0.0
2018-Feb-16 04:00N 40°38' W 074°08'0 0.0
2018-Feb-16 03:30N 40°38' W 074°08'0 0.0
2018-Feb-16 03:00N 40°38' W 074°08'0 0.0
2018-Feb-16 02:30N 40°38' W 074°08'0 0.0
2018-Feb-16 01:48N 40°38' W 074°08'2 5.5
2018-Feb-16 01:30N 40°39' W 074°10'7 2.0
2018-Feb-15 21:53N 40°33' W 074°15'3 7.6
2018-Feb-15 21:30N 40°35' W 074°13'4 8.5
2018-Feb-15 21:00N 40°39' W 074°10'2 3.7
2018-Feb-15 20:27N 40°38' W 074°08'0 0.0
2018-Feb-15 19:57N 40°38' W 074°08'0 0.0
2018-Feb-15 19:21N 40°38' W 074°08'0 0.0
2018-Feb-15 18:57N 40°38' W 074°08'0 0.0
2018-Feb-15 18:27N 40°38' W 074°08'0 0.0
2018-Feb-15 18:00N 40°38' W 074°08'0 0.0
2018-Feb-15 17:27N 40°38' W 074°08'0 0.0
2018-Feb-15 16:54N 40°38' W 074°08'0 0.0
2018-Feb-15 16:30N 40°38' W 074°08'0 0.0
2018-Feb-15 16:00N 40°38' W 074°08'0 0.1
2018-Feb-15 15:30N 40°39' W 074°08'3 2.5
2018-Feb-15 14:24N 40°40' W 074°04'1 2.1
2018-Feb-15 14:00N 40°40' W 074°03'3 5.7
2018-Feb-15 13:29N 40°39' W 074°07'1 1.2
2018-Feb-15 12:59N 40°38' W 074°08'0 0.0
2018-Feb-15 12:04N 40°38' W 074°08'0 0.0
2018-Feb-15 11:46N 40°38' W 074°08'0 0.0
2018-Feb-15 11:19N 40°38' W 074°08'0 0.0
2018-Feb-15 10:58N 40°38' W 074°08'0 0.0
2018-Feb-15 10:07N 40°38' W 074°08'0 0.0
2018-Feb-15 09:58N 40°38' W 074°08'0 0.0
2018-Feb-15 09:28N 40°38' W 074°08'0 0.0
2018-Feb-15 08:58N 40°38' W 074°08'0 0.0
2018-Feb-15 08:25N 40°38' W 074°08'0 0.0
2018-Feb-15 07:58N 40°38' W 074°08'0 0.0
2018-Feb-15 07:25N 40°38' W 074°08'0 0.0
2018-Feb-15 06:55N 40°38' W 074°08'0 0.0
2018-Feb-15 06:19N 40°38' W 074°08'0 0.0
2018-Feb-15 05:49N 40°38' W 074°08'0 0.0
2018-Feb-15 05:25N 40°38' W 074°08'0 0.0
2018-Feb-15 04:58N 40°38' W 074°08'0 0.0
2018-Feb-15 04:25N 40°38' W 074°08'0 0.0
2018-Feb-15 03:55N 40°38' W 074°08'0 0.0
2018-Feb-15 03:25N 40°38' W 074°08'0 0.0
2018-Feb-15 02:58N 40°38' W 074°08'0 0.0
2018-Feb-15 02:25N 40°38' W 074°08'0 0.0
2018-Feb-15 01:52N 40°38' W 074°08'0 0.0
2018-Feb-15 01:19N 40°38' W 074°08'0 0.0
2018-Feb-15 00:43N 40°38' W 074°08'1 5.1
2018-Feb-15 00:30N 40°39' W 074°09'2 3.5
2018-Feb-14 23:50N 40°41' W 074°08'0 0.2
2018-Feb-14 23:29N 40°41' W 074°08'0 0.7
2018-Feb-14 23:00N 40°42' W 074°09'0 0.5
2018-Feb-14 22:30N 40°42' W 074°08'2 4.6
2018-Feb-14 22:00N 40°39' W 074°09'2 4.5
2018-Feb-14 21:30N 40°39' W 074°06'2 4.5
2018-Feb-14 21:01N 40°39' W 074°03'3 5.1
2018-Feb-14 20:30N 40°39' W 074°06'1 2.3
2018-Feb-14 19:59N 40°38' W 074°08'2 4.4
2018-Feb-14 19:30N 40°39' W 074°05'0 0.1
2018-Feb-14 18:58N 40°39' W 074°05'0 0.4
2018-Feb-14 18:30N 40°39' W 074°05'1 2.9
2018-Feb-14 18:00N 40°38' W 074°03'1 1.1
2018-Feb-14 17:30N 40°39' W 074°04'3 4.5
2018-Feb-14 16:52N 40°38' W 074°08'0 0.0
2018-Feb-14 16:28N 40°38' W 074°08'0 0.0
2018-Feb-14 15:52N 40°38' W 074°08'0 0.0
2018-Feb-14 15:28N 40°38' W 074°08'1 3.0
2018-Feb-14 15:00N 40°39' W 074°06'3 5.5
2018-Feb-14 14:29N 40°40' W 074°02'4 8.8
2018-Feb-14 14:00N 40°38' W 074°08'0 0.1
2018-Feb-14 13:28N 40°38' W 074°08'0 0.0
2018-Feb-14 12:58N 40°38' W 074°08'0 0.0
2018-Feb-14 12:28N 40°38' W 074°08'  

Dump ship's entire track history